Pagrindinis puslapis
METAR-TAF:

METAR-TAF

Oro uostai :

Viktorija, Mahė, Seišeliai

platuma: 04-40S, ilguma: 055-31E, Aukštis: 3 m

Dabartinis oras

Ataskaita buvo paskelbta 43 minutes, ne 20:00 UTC
Vėjas 3 kt iš Pietų/Pietvakarių, svyruoja nuo Pietų ir Vakarų/Šiaurės Vakarų
Temperatūra 27°C
Drėgmė 84%
Slėgis 1010 hPa
Matomumas 10 km arba daugiau
Išsisklaidę debesys ne aukštis 2200 ft

METAR: FSIA 222000Z 20003KT 170V290 9999 SCT022 27/24 Q1010 NOSIG

Laikas: 00:43 (20:43 UTC)

Prognozė

Ataskaita buvo paskelbta 3 valandos ir 42 minutes, ne 17:01 UTC
Prognozė galioja nuo 22 metu 18 UTC su 23 metu 18 UTC
Vėjas 8 kt iš Vakarų
Matomumas 10 km arba daugiau
Išsisklaidę debesys ne aukštis 2200 ft
Tapsmas
nuo 22 metu 22 UTC su 22 metu 24 UTC
Vėjas 5 kt nuo kintamojo kryptimis

TAF: FSIA 221701Z 2218/2318 28008KT 9999 SCT022 BECMG 2222/2224 VRB05KT

Orai ataskaitas ir orų prognozės (METAR, TAF).

turimą stotys yra geltonos ir raudonos taškus žemėlapyje.

Perkelti pele per norėdami pamatyti stoties vardą.

Tada spustelėkite, norėdami matyti oro stebėjimo ir prognozės.

Norėdami pakeisti žemėlapį: spustelėkite ant žalios mygtukų su juodo kryžiaus žemyn,; žalią mygtuką su brūkšneliu, jei norite nutolinti; arba žalių rodyklių gretimoms žemėlapius.


METAR-TAF: